createdAt,value
2022-09-13T00:02:23.671Z,17.27
2022-09-13T00:04:49.960Z,17.14
2022-09-13T00:07:16.304Z,17.04
2022-09-13T00:09:42.644Z,17.01
2022-09-13T00:12:08.991Z,17.07
2022-09-13T00:14:35.317Z,17.09
2022-09-13T00:17:01.673Z,17.03
2022-09-13T00:19:28.012Z,17.05
2022-09-13T00:21:54.368Z,17.16
2022-09-13T00:24:20.708Z,17.18
2022-09-13T00:26:47.028Z,17.26
2022-09-13T00:29:13.369Z,17.35
2022-09-13T00:31:39.719Z,17.47
2022-09-13T00:34:06.030Z,17.57
2022-09-13T00:36:32.372Z,17.58
2022-09-13T00:38:58.696Z,17.61
2022-09-13T00:41:25.046Z,17.68
2022-09-13T00:43:51.403Z,17.70
2022-09-13T00:46:17.755Z,17.76
2022-09-13T00:48:44.094Z,17.71
2022-09-13T00:51:10.454Z,17.75
2022-09-13T00:53:36.853Z,17.77
2022-09-13T00:56:03.128Z,17.84
2022-09-13T00:58:29.453Z,17.82
2022-09-13T01:00:55.814Z,17.90
2022-09-13T01:03:22.095Z,17.89
2022-09-13T01:05:48.446Z,17.91
2022-09-13T01:08:14.768Z,17.96
2022-09-13T01:10:41.113Z,17.93
2022-09-13T01:13:07.432Z,17.94
2022-09-13T01:15:33.761Z,17.98
2022-09-13T01:18:00.106Z,17.95
2022-09-13T01:20:26.465Z,17.97
2022-09-13T01:22:52.790Z,17.95
2022-09-13T01:25:19.142Z,17.98
2022-09-13T01:27:45.461Z,18.00
2022-09-13T01:30:11.815Z,18.00
2022-09-13T01:32:38.135Z,18.03
2022-09-13T01:35:04.484Z,18.01
2022-09-13T01:37:30.856Z,17.99
2022-09-13T01:39:57.217Z,17.99
2022-09-13T01:42:23.518Z,18.01
2022-09-13T01:44:49.863Z,18.00
2022-09-13T01:47:16.206Z,17.97
2022-09-13T01:49:42.563Z,17.85
2022-09-13T01:52:08.913Z,17.76
2022-09-13T01:54:35.237Z,17.69
2022-09-13T01:57:01.563Z,17.62
2022-09-13T01:59:27.890Z,17.57
2022-09-13T02:01:54.300Z,17.57
2022-09-13T02:04:20.582Z,17.48
2022-09-13T02:06:46.898Z,17.56
2022-09-13T02:09:13.271Z,17.61
2022-09-13T02:11:39.594Z,17.69
2022-09-13T02:14:05.920Z,17.70
2022-09-13T02:16:32.337Z,17.74
2022-09-13T02:18:58.622Z,17.70
2022-09-13T02:21:24.968Z,17.68
2022-09-13T02:23:51.312Z,17.65
2022-09-13T02:26:17.637Z,17.65
2022-09-13T02:28:43.995Z,17.59
2022-09-13T02:31:10.336Z,17.52
2022-09-13T02:33:36.683Z,17.45
2022-09-13T02:36:03.043Z,17.45
2022-09-13T02:38:29.391Z,17.44
2022-09-13T02:40:55.717Z,17.40
2022-09-13T02:43:22.089Z,17.40
2022-09-13T02:45:48.481Z,17.35
2022-09-13T02:48:14.765Z,17.31
2022-09-13T02:50:41.126Z,17.18
2022-09-13T02:53:07.477Z,17.07
2022-09-13T02:55:33.796Z,17.01
2022-09-13T02:58:00.128Z,16.95
2022-09-13T03:00:26.475Z,16.99
2022-09-13T03:02:52.820Z,16.95
2022-09-13T03:05:19.207Z,16.92
2022-09-13T03:07:45.533Z,16.89
2022-09-13T03:10:11.850Z,16.87
2022-09-13T03:12:38.181Z,16.87
2022-09-13T03:15:04.504Z,16.80
2022-09-13T03:17:30.879Z,16.79
2022-09-13T03:19:57.223Z,16.88
2022-09-13T03:22:23.550Z,16.84
2022-09-13T03:24:49.878Z,16.91
2022-09-13T03:27:16.224Z,16.92
2022-09-13T03:29:42.569Z,16.94
2022-09-13T03:32:09.010Z,16.88
2022-09-13T03:34:35.302Z,16.88
2022-09-13T03:37:01.649Z,16.92
2022-09-13T03:39:28.003Z,16.85
2022-09-13T03:41:54.327Z,16.84
2022-09-13T03:44:20.668Z,16.86
2022-09-13T03:46:46.993Z,16.90
2022-09-13T03:49:13.320Z,16.83
2022-09-13T03:51:39.648Z,16.74
2022-09-13T03:54:05.989Z,16.62
2022-09-13T03:56:32.337Z,16.57
2022-09-13T03:58:58.657Z,16.51
2022-09-13T04:01:25.043Z,16.47
2022-09-13T04:03:55.845Z,16.45
2022-09-13T04:06:17.680Z,16.49
2022-09-13T04:08:44.027Z,16.43
2022-09-13T04:11:10.402Z,16.39
2022-09-13T04:13:36.749Z,16.33
2022-09-13T04:16:03.112Z,16.11
2022-09-13T04:18:29.404Z,16.08
2022-09-13T04:20:55.758Z,16.06
2022-09-13T04:23:22.077Z,16.17
2022-09-13T04:25:48.404Z,16.17
2022-09-13T04:28:14.757Z,16.06
2022-09-13T04:30:42.787Z,15.88
2022-09-13T04:33:07.438Z,15.77
2022-09-13T04:35:33.768Z,15.70
2022-09-13T04:38:00.114Z,15.82
2022-09-13T04:40:26.472Z,16.33
2022-09-13T04:42:52.853Z,16.89
2022-09-13T04:45:19.200Z,17.25
2022-09-13T04:47:45.516Z,17.54
2022-09-13T04:50:11.847Z,17.87
2022-09-13T04:52:38.169Z,18.14
2022-09-13T04:55:04.488Z,18.59
2022-09-13T04:57:30.812Z,18.88
2022-09-13T04:59:57.175Z,19.07
2022-09-13T05:02:23.553Z,19.07
2022-09-13T05:04:49.871Z,19.09
2022-09-13T05:07:16.230Z,19.34
2022-09-13T05:09:42.567Z,19.56
2022-09-13T05:12:08.912Z,19.76
2022-09-13T05:14:35.274Z,19.90
2022-09-13T05:17:01.616Z,20.15
2022-09-13T05:19:27.979Z,20.32
2022-09-13T05:21:54.313Z,20.49
2022-09-13T05:24:20.645Z,20.63
2022-09-13T05:26:47.032Z,20.59
2022-09-13T05:29:13.359Z,20.90
2022-09-13T05:31:39.781Z,21.24
2022-09-13T05:34:06.064Z,21.67
2022-09-13T05:36:32.424Z,21.88
2022-09-13T05:39:26.046Z,21.93
2022-09-13T05:41:25.097Z,21.70
2022-09-13T05:43:54.136Z,21.86
2022-09-13T05:46:17.977Z,22.17
2022-09-13T05:48:44.087Z,22.13
2022-09-13T05:51:10.439Z,22.25
2022-09-13T05:53:36.782Z,22.44
2022-09-13T05:56:03.105Z,22.30
2022-09-13T05:58:29.464Z,22.41
2022-09-13T06:00:55.866Z,22.66
2022-09-13T06:03:22.217Z,22.28
2022-09-13T06:05:48.536Z,22.46
2022-09-13T06:08:14.870Z,22.84
2022-09-13T06:10:41.196Z,22.86
2022-09-13T06:13:07.557Z,22.79
2022-09-13T06:15:33.915Z,22.83
2022-09-13T06:18:00.263Z,22.96
2022-09-13T06:20:28.802Z,22.81
2022-09-13T06:22:55.152Z,22.96
2022-09-13T06:25:21.488Z,22.89
2022-09-13T06:27:50.053Z,23.17
2022-09-13T06:30:14.296Z,23.04
2022-09-13T06:32:40.642Z,23.28
2022-09-13T06:35:07.001Z,23.60
2022-09-13T06:37:33.347Z,23.64
2022-09-13T06:39:59.733Z,23.45
2022-09-13T06:42:26.027Z,23.59
2022-09-13T06:44:52.378Z,23.35
2022-09-13T06:47:18.715Z,23.44
2022-09-13T06:49:45.063Z,22.96
2022-09-13T06:52:11.410Z,23.05
2022-09-13T06:54:37.750Z,22.81
2022-09-13T06:57:04.080Z,22.92
2022-09-13T06:59:30.491Z,23.15
2022-09-13T07:01:56.869Z,22.99
2022-09-13T07:04:23.196Z,23.40
2022-09-13T07:06:49.546Z,23.24
2022-09-13T07:09:15.878Z,23.23
2022-09-13T07:11:42.223Z,23.36
2022-09-13T07:14:08.551Z,23.63
2022-09-13T07:16:34.929Z,23.97
2022-09-13T07:19:01.314Z,23.72
2022-09-13T07:21:27.650Z,24.03
2022-09-13T07:23:53.998Z,24.17
2022-09-13T07:26:20.349Z,24.54
2022-09-13T07:28:46.777Z,24.88
2022-09-13T07:31:13.142Z,24.93
2022-09-13T07:33:39.364Z,25.03
2022-09-13T07:36:05.694Z,24.67
2022-09-13T07:38:32.026Z,24.96
2022-09-13T07:40:58.362Z,25.40
2022-09-13T07:43:24.696Z,25.72
2022-09-13T07:45:51.133Z,25.80
2022-09-13T07:48:17.512Z,25.70
2022-09-13T07:50:43.860Z,25.75
2022-09-13T07:53:10.213Z,26.21
2022-09-13T07:55:36.537Z,25.82
2022-09-13T07:58:02.895Z,26.46
2022-09-13T08:00:29.261Z,26.80
2022-09-13T08:02:55.610Z,27.34
2022-09-13T08:05:21.936Z,26.73
2022-09-13T08:07:48.343Z,26.84
2022-09-13T08:10:14.694Z,27.06
2022-09-13T08:12:41.017Z,27.24
2022-09-13T08:15:07.367Z,27.14
2022-09-13T08:17:33.729Z,27.21
2022-09-13T08:20:00.058Z,26.55
2022-09-13T08:22:26.390Z,27.07
2022-09-13T08:24:52.746Z,27.52
2022-09-13T08:27:19.089Z,25.92
2022-09-13T08:29:45.435Z,24.71
2022-09-13T08:32:11.791Z,23.59
2022-09-13T08:34:38.139Z,23.49
2022-09-13T08:37:04.813Z,23.80
2022-09-13T08:39:33.469Z,23.62
2022-09-13T08:41:57.542Z,23.82
2022-09-13T08:44:23.859Z,23.99
2022-09-13T08:46:50.197Z,24.13
2022-09-13T08:49:16.710Z,25.73
2022-09-13T08:51:42.889Z,26.72
2022-09-13T08:54:09.206Z,26.49
2022-09-13T08:56:35.533Z,27.12
2022-09-13T08:59:01.854Z,27.73
2022-09-13T09:01:28.299Z,27.60
2022-09-13T09:03:54.588Z,27.85
2022-09-13T09:06:20.931Z,28.05
2022-09-13T09:08:47.276Z,27.79
2022-09-13T09:11:13.611Z,27.05
2022-09-13T09:13:39.999Z,28.06
2022-09-13T09:16:06.426Z,28.04
2022-09-13T09:18:32.688Z,28.40
2022-09-13T09:20:59.010Z,28.96
2022-09-13T09:23:25.368Z,29.11
2022-09-13T09:25:51.711Z,28.62
2022-09-13T09:28:18.091Z,28.00
2022-09-13T09:30:44.446Z,26.37
2022-09-13T09:33:10.746Z,25.70
2022-09-13T09:35:37.082Z,24.79
2022-09-13T09:38:03.426Z,24.81
2022-09-13T09:40:31.719Z,25.47
2022-09-13T09:42:56.082Z,24.87
2022-09-13T09:45:22.427Z,24.74
2022-09-13T09:47:48.780Z,24.64
2022-09-13T09:50:15.110Z,25.00
2022-09-13T09:52:41.463Z,24.96
2022-09-13T09:55:07.791Z,24.98
2022-09-13T09:57:34.138Z,26.77
2022-09-13T10:00:00.465Z,28.36
2022-09-13T10:02:26.888Z,28.89
2022-09-13T10:04:53.212Z,27.08
2022-09-13T10:07:19.540Z,25.97
2022-09-13T10:09:45.877Z,25.03
2022-09-13T10:12:12.236Z,24.52
2022-09-13T10:14:38.567Z,25.55
2022-09-13T10:17:04.919Z,26.98
2022-09-13T10:19:31.296Z,28.36
2022-09-13T10:21:57.620Z,29.64
2022-09-13T10:24:23.958Z,29.51
2022-09-13T10:26:50.307Z,29.31
2022-09-13T10:29:16.700Z,29.15
2022-09-13T10:31:43.028Z,29.32
2022-09-13T10:34:09.390Z,29.91
2022-09-13T10:36:51.788Z,30.14
2022-09-13T10:39:02.124Z,29.84
2022-09-13T10:41:28.453Z,29.38
2022-09-13T10:43:54.812Z,29.75
2022-09-13T10:46:21.207Z,29.77
2022-09-13T10:48:47.514Z,28.51
2022-09-13T10:51:13.858Z,27.27
2022-09-13T10:53:40.204Z,28.44
2022-09-13T10:56:06.557Z,27.62
2022-09-13T10:58:32.914Z,26.82
2022-09-13T11:00:59.351Z,28.04
2022-09-13T11:03:25.567Z,29.20
2022-09-13T11:05:51.920Z,29.46
2022-09-13T11:08:18.247Z,29.94
2022-09-13T11:10:44.620Z,29.80
2022-09-13T11:13:10.987Z,29.44
2022-09-13T11:15:37.310Z,28.92
2022-09-13T11:18:03.667Z,28.52
2022-09-13T11:20:30.027Z,27.63
2022-09-13T11:22:56.353Z,27.30
2022-09-13T11:25:22.704Z,28.03
2022-09-13T11:27:49.050Z,28.85
2022-09-13T11:30:15.395Z,29.08
2022-09-13T11:32:41.742Z,29.36
2022-09-13T11:35:08.087Z,29.14
2022-09-13T11:37:34.421Z,28.83
2022-09-13T11:40:00.841Z,28.72
2022-09-13T11:42:27.374Z,28.73
2022-09-13T11:44:53.790Z,27.17
2022-09-13T11:47:20.312Z,26.38
2022-09-13T11:49:46.663Z,27.02
2022-09-13T11:52:13.039Z,27.60
2022-09-13T11:54:39.395Z,27.62
2022-09-13T11:57:05.749Z,26.64
2022-09-13T11:59:32.092Z,26.36
2022-09-13T12:01:58.528Z,26.81
2022-09-13T12:04:25.691Z,27.34
2022-09-13T12:06:51.109Z,27.89
2022-09-13T12:09:17.457Z,28.65
2022-09-13T12:11:43.810Z,27.62
2022-09-13T12:14:10.162Z,26.51
2022-09-13T12:16:36.659Z,26.87
2022-09-13T12:19:02.847Z,27.78
2022-09-13T12:21:29.182Z,28.04
2022-09-13T12:23:55.529Z,28.42
2022-09-13T12:26:21.867Z,28.42
2022-09-13T12:28:48.264Z,28.68
2022-09-13T12:31:14.614Z,29.14
2022-09-13T12:33:40.940Z,28.28
2022-09-13T12:36:07.358Z,28.15
2022-09-13T12:38:33.695Z,28.38
2022-09-13T12:41:00.072Z,28.50
2022-09-13T12:43:26.384Z,27.95
2022-09-13T12:45:52.747Z,27.61
2022-09-13T12:48:19.481Z,26.75
2022-09-13T12:50:45.890Z,26.09
2022-09-13T12:53:12.163Z,26.06
2022-09-13T12:55:47.441Z,25.87
2022-09-13T12:58:04.936Z,25.67
2022-09-13T13:00:31.259Z,25.55
2022-09-13T13:02:57.623Z,25.43
2022-09-13T13:05:23.953Z,25.36
2022-09-13T13:07:50.290Z,25.23
2022-09-13T13:10:16.622Z,25.17
2022-09-13T13:12:42.974Z,25.13
2022-09-13T13:15:09.306Z,25.17
2022-09-13T13:17:35.648Z,25.21
2022-09-13T13:20:02.001Z,25.15
2022-09-13T13:22:28.326Z,25.14
2022-09-13T13:24:54.717Z,25.28
2022-09-13T13:27:21.058Z,25.25
2022-09-13T13:29:47.404Z,25.25
2022-09-13T13:32:13.771Z,25.20
2022-09-13T13:34:40.111Z,25.08
2022-09-13T13:37:06.464Z,25.21
2022-09-13T13:39:32.794Z,25.16
2022-09-13T13:41:59.154Z,25.15
2022-09-13T13:44:25.491Z,25.03
2022-09-13T13:46:51.834Z,25.02
2022-09-13T13:49:18.214Z,25.17
2022-09-13T13:51:44.567Z,25.20
2022-09-13T13:54:10.931Z,25.19
2022-09-13T13:56:37.284Z,25.03
2022-09-13T13:59:03.630Z,25.00
2022-09-13T14:01:29.961Z,25.11
2022-09-13T14:03:56.322Z,25.15
2022-09-13T14:06:23.145Z,25.13
2022-09-13T14:08:49.587Z,24.97
2022-09-13T14:11:15.871Z,24.86
2022-09-13T14:13:42.271Z,24.80
2022-09-13T14:16:08.578Z,24.77
2022-09-13T14:18:34.989Z,24.61
2022-09-13T14:21:01.278Z,24.48
2022-09-13T14:23:27.631Z,24.62
2022-09-13T14:25:53.993Z,24.53
2022-09-13T14:28:20.351Z,24.49
2022-09-13T14:30:46.700Z,24.37
2022-09-13T14:33:13.066Z,24.36
2022-09-13T14:35:39.390Z,24.32
2022-09-13T14:38:05.724Z,24.34
2022-09-13T14:40:32.129Z,24.42
2022-09-13T14:42:58.403Z,24.32
2022-09-13T14:45:24.757Z,24.29
2022-09-13T14:47:51.157Z,24.29
2022-09-13T14:50:17.443Z,24.21
2022-09-13T14:52:43.802Z,24.10
2022-09-13T14:55:10.162Z,24.03
2022-09-13T14:57:36.487Z,24.01
2022-09-13T15:00:02.842Z,24.01
2022-09-13T15:02:29.354Z,24.00
2022-09-13T15:04:55.763Z,24.02
2022-09-13T15:07:22.074Z,23.93
2022-09-13T15:09:48.420Z,23.90
2022-09-13T15:12:14.747Z,23.91
2022-09-13T15:14:41.082Z,23.92
2022-09-13T15:17:07.427Z,23.80
2022-09-13T15:19:33.764Z,23.80
2022-09-13T15:22:00.117Z,23.77
2022-09-13T15:24:26.440Z,23.72
2022-09-13T15:26:52.799Z,23.61
2022-09-13T15:29:19.148Z,23.51
2022-09-13T15:31:45.538Z,23.55
2022-09-13T15:34:11.842Z,23.57
2022-09-13T15:36:38.175Z,23.51
2022-09-13T15:39:04.526Z,23.45
2022-09-13T15:41:30.899Z,23.43
2022-09-13T15:43:57.274Z,23.47
2022-09-13T15:46:23.631Z,23.43
2022-09-13T15:48:49.947Z,23.37
2022-09-13T15:51:16.320Z,23.33
2022-09-13T15:53:42.646Z,23.23
2022-09-13T15:56:08.996Z,23.22
2022-09-13T15:58:35.333Z,23.14
2022-09-13T16:01:01.719Z,23.08
2022-09-13T16:03:27.986Z,23.03
2022-09-13T16:05:54.355Z,23.03
2022-09-13T16:08:20.679Z,22.96
2022-09-13T16:10:47.028Z,22.88
2022-09-13T16:13:13.341Z,22.85
2022-09-13T16:15:39.671Z,22.75
2022-09-13T16:18:06.032Z,22.72
2022-09-13T16:20:32.379Z,22.67
2022-09-13T16:22:58.691Z,22.61
2022-09-13T16:25:25.058Z,22.52
2022-09-13T16:27:51.410Z,22.52
2022-09-13T16:30:17.759Z,22.45
2022-09-13T16:32:44.139Z,22.41
2022-09-13T16:35:10.490Z,22.37
2022-09-13T16:37:36.839Z,22.25
2022-09-13T16:40:03.223Z,22.24
2022-09-13T16:42:29.548Z,22.24
2022-09-13T16:44:55.902Z,22.20
2022-09-13T16:47:22.267Z,22.16
2022-09-13T16:49:48.605Z,22.16
2022-09-13T16:52:14.933Z,22.13
2022-09-13T16:54:41.285Z,22.09
2022-09-13T16:57:07.634Z,22.02
2022-09-13T16:59:33.969Z,21.97
2022-09-13T17:02:00.418Z,21.92
2022-09-13T17:04:26.677Z,21.86
2022-09-13T17:06:53.025Z,21.80
2022-09-13T17:09:19.358Z,21.75
2022-09-13T17:11:45.691Z,21.65
2022-09-13T17:14:12.044Z,21.61
2022-09-13T17:16:38.488Z,21.63
2022-09-13T17:19:04.727Z,21.54
2022-09-13T17:21:31.061Z,21.54
2022-09-13T17:23:57.414Z,21.43
2022-09-13T17:26:23.771Z,21.36
2022-09-13T17:28:50.109Z,21.33
2022-09-13T17:31:16.458Z,21.26
2022-09-13T17:33:42.834Z,21.19
2022-09-13T17:36:09.152Z,21.15
2022-09-13T17:38:35.469Z,21.12
2022-09-13T17:41:01.793Z,21.08
2022-09-13T17:43:28.138Z,21.07
2022-09-13T17:45:54.486Z,21.02
2022-09-13T17:48:20.812Z,21.07
2022-09-13T17:50:47.200Z,21.03
2022-09-13T17:53:13.536Z,20.98
2022-09-13T17:55:39.867Z,20.89
2022-09-13T17:58:06.258Z,20.85
2022-09-13T18:00:32.590Z,20.89
2022-09-13T18:02:58.975Z,20.79
2022-09-13T18:05:25.306Z,20.77
2022-09-13T18:07:51.667Z,20.72
2022-09-13T18:10:45.165Z,20.70
2022-09-13T18:12:44.329Z,20.64
2022-09-13T18:15:10.667Z,20.56
2022-09-13T18:17:37.003Z,20.46
2022-09-13T18:20:03.374Z,20.45
2022-09-13T18:22:29.718Z,20.42
2022-09-13T18:24:56.063Z,20.44
2022-09-13T18:27:22.430Z,20.43
2022-09-13T18:29:48.768Z,20.46
2022-09-13T18:32:15.098Z,20.47
2022-09-13T18:34:41.461Z,20.47
2022-09-13T18:37:07.789Z,20.49
2022-09-13T18:39:34.118Z,20.54
2022-09-13T18:42:00.611Z,20.47
2022-09-13T18:44:26.973Z,20.47
2022-09-13T18:46:53.308Z,20.44
2022-09-13T18:49:19.697Z,20.38
2022-09-13T18:51:46.019Z,20.35
2022-09-13T18:54:12.344Z,20.28
2022-09-13T18:56:38.719Z,20.23
2022-09-13T18:59:05.056Z,20.24
2022-09-13T19:01:31.517Z,20.18
2022-09-13T19:03:57.729Z,20.15
2022-09-13T19:06:24.048Z,20.12
2022-09-13T19:08:50.392Z,20.06
2022-09-13T19:11:42.089Z,20.00
2022-09-13T19:13:43.124Z,19.96
2022-09-13T19:16:09.506Z,19.88
2022-09-13T19:18:35.798Z,19.85
2022-09-13T19:21:02.139Z,19.80
2022-09-13T19:23:43.150Z,19.70
2022-09-13T19:25:54.829Z,19.69
2022-09-13T19:28:21.194Z,19.60
2022-09-13T19:30:47.559Z,19.42
2022-09-13T19:33:13.884Z,19.26
2022-09-13T19:35:40.225Z,19.33
2022-09-13T19:38:06.917Z,19.35
2022-09-13T19:40:33.280Z,19.28
2022-09-13T19:42:59.612Z,19.14
2022-09-13T19:45:25.947Z,18.95
2022-09-13T19:48:34.767Z,18.77
2022-09-13T19:50:18.660Z,18.66
2022-09-13T19:52:44.988Z,18.50
2022-09-13T19:55:11.311Z,18.45
2022-09-13T19:57:39.951Z,18.42
2022-09-13T20:00:03.991Z,18.37
2022-09-13T20:02:30.342Z,18.31
2022-09-13T20:04:56.799Z,18.20
2022-09-13T20:07:23.045Z,18.14
2022-09-13T20:09:49.387Z,18.17
2022-09-13T20:12:15.751Z,18.10
2022-09-13T20:14:42.079Z,18.08
2022-09-13T20:17:08.653Z,18.20
2022-09-13T20:19:47.587Z,18.22
2022-09-13T20:22:01.313Z,18.16
2022-09-13T20:24:27.661Z,18.06
2022-09-13T20:26:54.223Z,17.98
2022-09-13T20:29:20.700Z,17.95
2022-09-13T20:31:47.133Z,17.93
2022-09-13T20:34:13.510Z,17.96
2022-09-13T20:36:40.036Z,17.92
2022-09-13T20:39:06.627Z,17.91
2022-09-13T20:41:33.000Z,17.84
2022-09-13T20:43:59.329Z,17.74
2022-09-13T20:46:25.736Z,17.74
2022-09-13T20:48:52.023Z,17.72
2022-09-13T20:51:18.345Z,17.66
2022-09-13T20:53:44.663Z,17.67
2022-09-13T20:56:11.011Z,17.60
2022-09-13T20:58:37.347Z,17.49
2022-09-13T21:01:03.737Z,17.51
2022-09-13T21:03:30.031Z,17.48
2022-09-13T21:05:56.377Z,17.40
2022-09-13T21:08:22.722Z,17.27
2022-09-13T21:10:49.048Z,17.14
2022-09-13T21:13:17.853Z,17.11
2022-09-13T21:15:44.179Z,17.10
2022-09-13T21:18:10.523Z,17.11
2022-09-13T21:20:36.902Z,16.99
2022-09-13T21:23:03.249Z,16.91
2022-09-13T21:25:29.565Z,16.78
2022-09-13T21:27:55.909Z,16.77
2022-09-13T21:30:22.250Z,16.83
2022-09-13T21:32:48.582Z,16.81
2022-09-13T21:35:14.939Z,16.77
2022-09-13T21:37:41.274Z,16.72
2022-09-13T21:40:07.650Z,16.68
2022-09-13T21:42:33.948Z,16.61
2022-09-13T21:45:00.293Z,16.48
2022-09-13T21:47:26.606Z,16.45
2022-09-13T21:49:52.932Z,16.40
2022-09-13T21:52:19.274Z,16.38
2022-09-13T21:54:45.616Z,16.36
2022-09-13T21:57:11.970Z,16.46
2022-09-13T21:59:38.313Z,16.50
2022-09-13T22:02:04.680Z,16.57
2022-09-13T22:04:31.044Z,16.51
2022-09-13T22:06:57.377Z,16.52
2022-09-13T22:09:23.710Z,16.54
2022-09-13T22:11:50.087Z,16.43
2022-09-13T22:14:16.432Z,16.33
2022-09-13T22:16:42.817Z,16.32
2022-09-13T22:19:09.576Z,16.27
2022-09-13T22:21:35.443Z,16.28
2022-09-13T22:24:01.798Z,16.31
2022-09-13T22:26:28.142Z,16.35
2022-09-13T22:28:54.467Z,16.31
2022-09-13T22:31:20.903Z,16.30
2022-09-13T22:33:47.217Z,16.11
2022-09-13T22:36:13.476Z,16.13
2022-09-13T22:38:39.864Z,16.16
2022-09-13T22:41:06.208Z,16.14
2022-09-13T22:43:32.527Z,16.08
2022-09-13T22:45:58.897Z,16.13
2022-09-13T22:48:25.211Z,16.05
2022-09-13T22:50:51.537Z,16.02
2022-09-13T22:53:17.862Z,16.01
2022-09-13T22:55:44.183Z,16.20
2022-09-13T22:58:10.512Z,16.19
2022-09-13T23:00:36.860Z,16.04
2022-09-13T23:03:03.217Z,16.17
2022-09-13T23:05:29.564Z,16.04
2022-09-13T23:07:55.910Z,16.15
2022-09-13T23:10:22.254Z,16.14
2022-09-13T23:12:48.602Z,16.12
2022-09-13T23:15:14.914Z,16.20
2022-09-13T23:17:41.246Z,16.04
2022-09-13T23:20:07.627Z,15.90
2022-09-13T23:22:33.950Z,15.85
2022-09-13T23:25:00.291Z,15.83
2022-09-13T23:27:26.618Z,15.74
2022-09-13T23:29:52.984Z,15.67
2022-09-13T23:32:19.305Z,15.84
2022-09-13T23:34:45.621Z,15.82
2022-09-13T23:37:11.951Z,15.86
2022-09-13T23:39:38.294Z,15.90
2022-09-13T23:42:04.677Z,15.84
2022-09-13T23:44:31.017Z,15.96
2022-09-13T23:46:57.337Z,15.92
2022-09-13T23:49:23.703Z,15.93
2022-09-13T23:51:50.051Z,15.98
2022-09-13T23:54:16.410Z,15.83
2022-09-13T23:56:42.740Z,15.82
2022-09-13T23:59:09.087Z,15.59
